Napoli Jet — IQTJ — position and weather

sailwx.info

Track history (hours):
 
Tides and Currents Weather Stations Pressure Air Temp Water Temp Dewpoint Dewpoint Depression Visibility Wind Speed Wind Dir Waves Ship Positions

Napoli Jet

Last reported at 2014-Jul-23 17:05 UTC. Time now 2014-Jul-23 18:08 UTC.
Position N 40°38' E 014°23'.

Length 41 m; draft 1.3 m.

Type: Ship. MMSI: 247051400.

Date/timePositionNaut miles runAvg speedWind from/ knotsBaromVisibWave heightAir tempDewpointWater temp
2014-Jul-23 17:05N 40°38' E 014°23'7 4.9
2014-Jul-23 15:33N 40°44' E 014°17'1110.6
2014-Jul-23 14:33N 40°33' E 014°14'0 0.0
2014-Jul-23 13:33N 40°33' E 014°14'7 6.7
2014-Jul-23 12:33N 40°38' E 014°21'7 6.7
2014-Jul-23 11:33N 40°33' E 014°14'0 0.0
2014-Jul-23 10:34N 40°33' E 014°14'17 7.8
2014-Jul-23 08:26N 40°50' E 014°16'1719.2
2014-Jul-23 07:33N 40°33' E 014°14'10 4.8
2014-Jul-23 05:33N 40°42' E 014°20'4 0.4
2014-Jul-22 17:04N 40°38' E 014°23'8 5.1
2014-Jul-22 15:34N 40°44' E 014°16'10 9.8
2014-Jul-22 14:29N 40°33' E 014°14'17 8.0
2014-Jul-22 12:25N 40°50' E 014°17'1716.6
2014-Jul-22 11:25N 40°33' E 014°14'0 0.0
2014-Jul-22 10:33N 40°33' E 014°14'0 0.0
2014-Jul-22 09:33N 40°33' E 014°14'1714.0
2014-Jul-22 08:22N 40°50' E 014°16'1720.2
2014-Jul-22 07:32N 40°33' E 014°14'10 5.0
2014-Jul-22 05:33N 40°42' E 014°20'5 0.4
2014-Jul-21 17:07N 40°38' E 014°23'7 1.1
2014-Jul-21 10:33N 40°45' E 014°20'1111.1
2014-Jul-21 09:34N 40°35' E 014°16'2 1.5
2014-Jul-21 08:33N 40°33' E 014°14'0 0.0
2014-Jul-21 07:33N 40°33' E 014°14'10 5.0
2014-Jul-21 05:34N 40°42' E 014°20'5 4.8
2014-Jul-21 04:33N 40°38' E 014°23'0 0.0
2014-Jul-20 17:06N 40°38' E 014°23'1323.2
2014-Jul-20 16:33N 40°50' E 014°17'1 1.2
2014-Jul-20 15:33N 40°50' E 014°15'1616.0
2014-Jul-20 14:33N 40°34' E 014°15'1 1.0
2014-Jul-20 13:33N 40°33' E 014°14'1716.7
2014-Jul-20 12:33N 40°50' E 014°15'0 0.0
2014-Jul-20 11:33N 40°50' E 014°15'1716.1
2014-Jul-20 10:31N 40°33' E 014°14'0 0.0
2014-Jul-20 09:33N 40°33' E 014°14'1713.4
2014-Jul-20 08:18N 40°50' E 014°16'1722.6
2014-Jul-20 07:33N 40°33' E 014°14'8 0.5
2014-Jul-19 17:07N 40°38' E 014°23'1413.2
2014-Jul-19 16:05N 40°50' E 014°15'611.7
2014-Jul-19 15:34N 40°44' E 014°17'1110.9
2014-Jul-19 14:33N 40°33' E 014°14'17 8.1
2014-Jul-19 12:27N 40°51' E 014°16'0 0.0
2014-Jul-19 11:33N 40°51' E 014°16'1 0.2
2014-Jul-19 08:23N 40°50' E 014°17'1719.7
2014-Jul-19 07:32N 40°33' E 014°14'10 5.1
2014-Jul-19 05:34N 40°42' E 014°21'5 0.4
2014-Jul-18 18:27N 40°38' E 014°23'0 0.0
2014-Jul-18 17:07N 40°38' E 014°23'14 7.8
2014-Jul-18 15:23N 40°50' E 014°15'1720.2
2014-Jul-18 14:33N 40°33' E 014°14'2 1.8
2014-Jul-18 13:33N 40°35' E 014°14'1 0.7
2014-Jul-18 12:33N 40°35' E 014°14'3 3.4
2014-Jul-18 11:33N 40°37' E 014°16'13 5.5
2014-Jul-18 09:11N 40°51' E 014°16'9 2.5
2014-Jul-18 05:33N 40°42' E 014°20'5 0.4
2014-Jul-17 17:04N 40°38' E 014°23'8 5.0
2014-Jul-17 15:33N 40°44' E 014°17'1110.7
2014-Jul-17 14:34N 40°33' E 014°15'0 0.1
2014-Jul-17 13:33N 40°33' E 014°14'0 0.0
2014-Jul-17 12:33N 40°33' E 014°14'0 0.0
2014-Jul-17 11:33N 40°33' E 014°14'1716.5
2014-Jul-17 10:32N 40°50' E 014°15'1717.0
2014-Jul-17 09:33N 40°33' E 014°14'0 0.0
2014-Jul-17 08:33N 40°33' E 014°14'10 3.5
2014-Jul-17 05:33N 40°42' E 014°21'5 0.4
2014-Jul-16 17:08N 40°38' E 014°23'13 4.4
2014-Jul-16 14:10N 40°50' E 014°17'1523.9
2014-Jul-16 13:33N 40°35' E 014°15'5 5.4
2014-Jul-16 12:34N 40°38' E 014°21'7 7.2
2014-Jul-16 11:33N 40°33' E 014°14'0 0.0
2014-Jul-16 10:34N 40°33' E 014°14'0 0.0
2014-Jul-16 09:34N 40°33' E 014°14'1714.4
2014-Jul-16 08:25N 40°50' E 014°17'1619.2
2014-Jul-16 07:33N 40°33' E 014°15'10 4.9
2014-Jul-16 05:33N 40°42' E 014°21'5 0.4
2014-Jul-15 17:07N 40°38' E 014°23'13 6.9
2014-Jul-15 15:14N 40°50' E 014°17'1623.4
2014-Jul-15 14:33N 40°34' E 014°15'1 0.7
2014-Jul-15 13:32N 40°33' E 014°14'0 0.0
2014-Jul-15 12:33N 40°33' E 014°14'0 0.0
2014-Jul-15 11:33N 40°33' E 014°14'1713.1
2014-Jul-15 10:17N 40°50' E 014°16'1722.8
2014-Jul-15 09:33N 40°33' E 014°14'0 0.0
2014-Jul-15 08:33N 40°33' E 014°14'10 3.2
2014-Jul-15 05:33N 40°42' E 014°21'4 0.3
2014-Jul-14 17:06N 40°38' E 014°23'13 7.1
2014-Jul-14 15:16N 40°50' E 014°17'1622.7
2014-Jul-14 14:33N 40°34' E 014°15'1 0.6
2014-Jul-14 13:33N 40°33' E 014°14'17 7.7
2014-Jul-14 11:24N 40°50' E 014°16'1719.5
2014-Jul-14 10:32N 40°33' E 014°14'0 0.0
2014-Jul-14 09:33N 40°33' E 014°14'1714.7
2014-Jul-14 08:25N 40°50' E 014°17'1719.2
2014-Jul-14 07:33N 40°33' E 014°15'10 4.8
2014-Jul-14 05:33N 40°42' E 014°21'4 0.3
2014-Jul-13 17:06N 40°38' E 014°23'  
Track history (hours):
 
Tides and Currents Weather Stations Pressure Air Temp Water Temp Dewpoint Dewpoint Depression Visibility Wind Speed Wind Dir Waves Ship Positions

Napoli Jet

Last reported at 2014-Jul-23 17:05 UTC. Time now 2014-Jul-23 18:08 UTC.
Position N 40°38' E 014°23'.

Length 41 m; draft 1.3 m.

Type: Ship. MMSI: 247051400.

Date/timePositionNaut miles runAvg speedWind from/ knotsBaromVisibWave heightAir tempDewpointWater temp
2014-Jul-23 17:05N 40°38' E 014°23'7 4.9
2014-Jul-23 15:33N 40°44' E 014°17'1110.6
2014-Jul-23 14:33N 40°33' E 014°14'0 0.0
2014-Jul-23 13:33N 40°33' E 014°14'7 6.7
2014-Jul-23 12:33N 40°38' E 014°21'7 6.7
2014-Jul-23 11:33N 40°33' E 014°14'0 0.0
2014-Jul-23 10:34N 40°33' E 014°14'17 7.8
2014-Jul-23 08:26N 40°50' E 014°16'1719.2
2014-Jul-23 07:33N 40°33' E 014°14'10 4.8
2014-Jul-23 05:33N 40°42' E 014°20'4 0.4
2014-Jul-22 17:04N 40°38' E 014°23'8 5.1
2014-Jul-22 15:34N 40°44' E 014°16'10 9.8
2014-Jul-22 14:29N 40°33' E 014°14'17 8.0
2014-Jul-22 12:25N 40°50' E 014°17'1716.6
2014-Jul-22 11:25N 40°33' E 014°14'0 0.0
2014-Jul-22 10:33N 40°33' E 014°14'0 0.0
2014-Jul-22 09:33N 40°33' E 014°14'1714.0
2014-Jul-22 08:22N 40°50' E 014°16'1720.2
2014-Jul-22 07:32N 40°33' E 014°14'10 5.0
2014-Jul-22 05:33N 40°42' E 014°20'5 0.4
2014-Jul-21 17:07N 40°38' E 014°23'7 1.1
2014-Jul-21 10:33N 40°45' E 014°20'1111.1
2014-Jul-21 09:34N 40°35' E 014°16'2 1.5
2014-Jul-21 08:33N 40°33' E 014°14'0 0.0
2014-Jul-21 07:33N 40°33' E 014°14'10 5.0
2014-Jul-21 05:34N 40°42' E 014°20'5 4.8
2014-Jul-21 04:33N 40°38' E 014°23'0 0.0
2014-Jul-20 17:06N 40°38' E 014°23'1323.2
2014-Jul-20 16:33N 40°50' E 014°17'1 1.2
2014-Jul-20 15:33N 40°50' E 014°15'1616.0
2014-Jul-20 14:33N 40°34' E 014°15'1 1.0
2014-Jul-20 13:33N 40°33' E 014°14'1716.7
2014-Jul-20 12:33N 40°50' E 014°15'0 0.0
2014-Jul-20 11:33N 40°50' E 014°15'1716.1
2014-Jul-20 10:31N 40°33' E 014°14'0 0.0
2014-Jul-20 09:33N 40°33' E 014°14'1713.4
2014-Jul-20 08:18N 40°50' E 014°16'1722.6
2014-Jul-20 07:33N 40°33' E 014°14'8 0.5
2014-Jul-19 17:07N 40°38' E 014°23'1413.2
2014-Jul-19 16:05N 40°50' E 014°15'611.7
2014-Jul-19 15:34N 40°44' E 014°17'1110.9
2014-Jul-19 14:33N 40°33' E 014°14'17 8.1
2014-Jul-19 12:27N 40°51' E 014°16'0 0.0
2014-Jul-19 11:33N 40°51' E 014°16'1 0.2
2014-Jul-19 08:23N 40°50' E 014°17'1719.7
2014-Jul-19 07:32N 40°33' E 014°14'10 5.1
2014-Jul-19 05:34N 40°42' E 014°21'5 0.4
2014-Jul-18 18:27N 40°38' E 014°23'0 0.0
2014-Jul-18 17:07N 40°38' E 014°23'14 7.8
2014-Jul-18 15:23N 40°50' E 014°15'1720.2
2014-Jul-18 14:33N 40°33' E 014°14'2 1.8
2014-Jul-18 13:33N 40°35' E 014°14'1 0.7
2014-Jul-18 12:33N 40°35' E 014°14'3 3.4
2014-Jul-18 11:33N 40°37' E 014°16'13 5.5
2014-Jul-18 09:11N 40°51' E 014°16'9 2.5
2014-Jul-18 05:33N 40°42' E 014°20'5 0.4
2014-Jul-17 17:04N 40°38' E 014°23'8 5.0
2014-Jul-17 15:33N 40°44' E 014°17'1110.7
2014-Jul-17 14:34N 40°33' E 014°15'0 0.1
2014-Jul-17 13:33N 40°33' E 014°14'0 0.0
2014-Jul-17 12:33N 40°33' E 014°14'0 0.0
2014-Jul-17 11:33N 40°33' E 014°14'1716.5
2014-Jul-17 10:32N 40°50' E 014°15'1717.0
2014-Jul-17 09:33N 40°33' E 014°14'0 0.0
2014-Jul-17 08:33N 40°33' E 014°14'10 3.5
2014-Jul-17 05:33N 40°42' E 014°21'5 0.4
2014-Jul-16 17:08N 40°38' E 014°23'13 4.4
2014-Jul-16 14:10N 40°50' E 014°17'1523.9
2014-Jul-16 13:33N 40°35' E 014°15'5 5.4
2014-Jul-16 12:34N 40°38' E 014°21'7 7.2
2014-Jul-16 11:33N 40°33' E 014°14'0 0.0
2014-Jul-16 10:34N 40°33' E 014°14'0 0.0
2014-Jul-16 09:34N 40°33' E 014°14'1714.4
2014-Jul-16 08:25N 40°50' E 014°17'1619.2
2014-Jul-16 07:33N 40°33' E 014°15'10 4.9
2014-Jul-16 05:33N 40°42' E 014°21'5 0.4
2014-Jul-15 17:07N 40°38' E 014°23'13 6.9
2014-Jul-15 15:14N 40°50' E 014°17'1623.4
2014-Jul-15 14:33N 40°34' E 014°15'1 0.7
2014-Jul-15 13:32N 40°33' E 014°14'0 0.0
2014-Jul-15 12:33N 40°33' E 014°14'0 0.0
2014-Jul-15 11:33N 40°33' E 014°14'1713.1
2014-Jul-15 10:17N 40°50' E 014°16'1722.8
2014-Jul-15 09:33N 40°33' E 014°14'0 0.0
2014-Jul-15 08:33N 40°33' E 014°14'10 3.2
2014-Jul-15 05:33N 40°42' E 014°21'4 0.3
2014-Jul-14 17:06N 40°38' E 014°23'13 7.1
2014-Jul-14 15:16N 40°50' E 014°17'1622.7
2014-Jul-14 14:33N 40°34' E 014°15'1 0.6
2014-Jul-14 13:33N 40°33' E 014°14'17 7.7
2014-Jul-14 11:24N 40°50' E 014°16'1719.5
2014-Jul-14 10:32N 40°33' E 014°14'0 0.0
2014-Jul-14 09:33N 40°33' E 014°14'1714.7
2014-Jul-14 08:25N 40°50' E 014°17'1719.2
2014-Jul-14 07:33N 40°33' E 014°15'10 4.8
2014-Jul-14 05:33N 40°42' E 014°21'4 0.3
2014-Jul-13 17:06N 40°38' E 014°23'  

Dump ship's entire track history